Lowell, Kansas
Current Conditions -  °F | °C
As of 12:53 PM on Tuesday 21 Oct 2014 (Local Time) from KJLN Reporting Station
Clear Clear  
Wind Chill: 73°   Ceiling: Unl
Heat Index: 73°   Visibility: 10mi
Dew Point: 49°   Wind: 0mph
Humidity: 42%   Direction: NA
Pressure: 30.12"   Gusts: NA
Location:  37.0394°N, 94.6644°W
Report Text: KJLN 211753Z 00000KT 10SM CLR 23/09 A3012 RMK AO2 SLP196 T02280094 10228 20089 58006
Loading
Personal Weather Stations






























Interactive Weather Map
Tropical Storm Tracking
New forecast layout! Learn more

10-Day Weather Forecast

Advertisements
Track Severe Weather on mobile